Wetterdaten: Donnerstag, 18.02.2010
Datum Zeit Temp. A. Feuchte A. Luftdruck Regen Wind Richtung Richtung Sonnenschein UV Solar Windben
18.02.2010 00:00 2,1 C 81 % 992,6 hPa 0,0 mm 3,2 km/h (1 Bft) O-SO 112 0 min 0 UV-I 0 W/m 12,9 km/h (3 Bft)
18.02.2010 00:10 2,2 C 80 % 992,6 hPa 0,0 mm 3,2 km/h (1 Bft) O-SO 112 0 min 0 UV-I 0 W/m 11,3 km/h (2 Bft)
18.02.2010 00:20 2,2 C 79 % 992,7 hPa 0,0 mm 3,2 km/h (1 Bft) O-SO 112 0 min 0 UV-I 0 W/m 11,3 km/h (2 Bft)
18.02.2010 00:30 2,2 C 80 % 992,7 hPa 0,0 mm 1,6 km/h (1 Bft) SO 135 0 min 0 UV-I 0 W/m 8,0 km/h (2 Bft)
18.02.2010 00:40 2,3 C 79 % 992,8 hPa 0,0 mm 1,6 km/h (1 Bft) S-SO 157 0 min 0 UV-I 0 W/m 8,0 km/h (2 Bft)
18.02.2010 00:50 2,3 C 79 % 992,6 hPa 0,0 mm 1,6 km/h (1 Bft) S 180 0 min 0 UV-I 0 W/m 9,7 km/h (2 Bft)
18.02.2010 01:00 2,3 C 79 % 992,5 hPa 0,0 mm 3,2 km/h (1 Bft) SO 135 0 min 0 UV-I 0 W/m 16,1 km/h (3 Bft)
18.02.2010 01:10 2,3 C 79 % 992,3 hPa 0,0 mm 1,6 km/h (1 Bft) SO 135 0 min 0 UV-I 0 W/m 6,4 km/h (2 Bft)
18.02.2010 01:20 2,3 C 79 % 992,3 hPa 0,0 mm 1,6 km/h (1 Bft) S-SO 157 0 min 0 UV-I 0 W/m 4,8 km/h (1 Bft)
18.02.2010 01:30 2,3 C 79 % 992,3 hPa 0,0 mm 1,6 km/h (1 Bft) SO 135 0 min 0 UV-I 0 W/m 6,4 km/h (2 Bft)
18.02.2010 01:40 2,3 C 79 % 992,3 hPa 0,0 mm 1,6 km/h (1 Bft) O-SO 112 0 min 0 UV-I 0 W/m 9,7 km/h (2 Bft)
18.02.2010 01:50 2,3 C 80 % 992,4 hPa 0,0 mm 1,6 km/h (1 Bft) SO 135 0 min 0 UV-I 0 W/m 8,0 km/h (2 Bft)
18.02.2010 02:00 2,4 C 79 % 992,3 hPa 0,0 mm 1,6 km/h (1 Bft) S-SO 157 0 min 0 UV-I 0 W/m 8,0 km/h (2 Bft)
18.02.2010 02:10 2,5 C 79 % 992,4 hPa 0,0 mm 0,0 km/h (0 Bft) O-NO 67 0 min 0 UV-I 0 W/m 4,8 km/h (1 Bft)
18.02.2010 02:20 2,5 C 80 % 992,5 hPa 0,0 mm 0,0 km/h (0 Bft) O-NO 67 0 min 0 UV-I 0 W/m 3,2 km/h (1 Bft)
18.02.2010 02:30 2,4 C 82 % 992,6 hPa 0,0 mm 0,0 km/h (0 Bft) O-NO 67 0 min 0 UV-I 0 W/m 3,2 km/h (1 Bft)
18.02.2010 02:40 2,3 C 82 % 992,5 hPa 0,0 mm 1,6 km/h (1 Bft) SO 135 0 min 0 UV-I 0 W/m 6,4 km/h (2 Bft)
18.02.2010 02:50 2,3 C 83 % 992,4 hPa 0,0 mm 1,6 km/h (1 Bft) O-SO 112 0 min 0 UV-I 0 W/m 6,4 km/h (2 Bft)
18.02.2010 03:00 2,3 C 84 % 992,5 hPa 0,0 mm 1,6 km/h (1 Bft) O-SO 112 0 min 0 UV-I 0 W/m 6,4 km/h (2 Bft)
18.02.2010 03:10 2,2 C 84 % 992,4 hPa 0,0 mm 1,6 km/h (1 Bft) O-SO 112 0 min 0 UV-I 0 W/m 4,8 km/h (1 Bft)
18.02.2010 03:20 2,1 C 85 % 992,4 hPa 0,0 mm 1,6 km/h (1 Bft) O-SO 112 0 min 0 UV-I 0 W/m 4,8 km/h (1 Bft)
18.02.2010 03:30 2,1 C 85 % 992,3 hPa 0,0 mm 1,6 km/h (1 Bft) O-SO 112 0 min 0 UV-I 0 W/m 6,4 km/h (2 Bft)
18.02.2010 03:40 2,0 C 85 % 992,3 hPa 0,0 mm 1,6 km/h (1 Bft) O 90 0 min 0 UV-I 0 W/m 4,8 km/h (1 Bft)
18.02.2010 03:50 1,9 C 86 % 992,1 hPa 0,0 mm 1,6 km/h (1 Bft) O 90 0 min 0 UV-I 0 W/m 3,2 km/h (1 Bft)
18.02.2010 04:00 1,9 C 86 % 992,2 hPa 0,0 mm 0,0 km/h (0 Bft) O 90 0 min 0 UV-I 0 W/m 4,8 km/h (1 Bft)
18.02.2010 04:10 1,8 C 86 % 992,2 hPa 0,0 mm 0,0 km/h (0 Bft) O 90 0 min 0 UV-I 0 W/m 3,2 km/h (1 Bft)
18.02.2010 04:20 1,9 C 86 % 992,0 hPa 0,0 mm 0,0 km/h (0 Bft) O 90 0 min 0 UV-I 0 W/m 3,2 km/h (1 Bft)
18.02.2010 04:30 1,9 C 86 % 991,8 hPa 0,0 mm 0,0 km/h (0 Bft) O 90 0 min 0 UV-I 0 W/m 3,2 km/h (1 Bft)
18.02.2010 04:40 1,8 C 86 % 992,0 hPa 0,0 mm 0,0 km/h (0 Bft) O 90 0 min 0 UV-I 0 W/m 3,2 km/h (1 Bft)
18.02.2010 04:50 1,9 C 86 % 992,0 hPa 0,0 mm 0,0 km/h (0 Bft) O 90 0 min 0 UV-I 0 W/m 3,2 km/h (1 Bft)
18.02.2010 05:00 2,0 C 86 % 992,0 hPa 0,0 mm 0,0 km/h (0 Bft) O 90 0 min 0 UV-I 0 W/m 3,2 km/h (1 Bft)
18.02.2010 05:10 2,1 C 86 % 992,1 hPa 0,0 mm 0,0 km/h (0 Bft) O 90 0 min 0 UV-I 0 W/m 1,6 km/h (1 Bft)
18.02.2010 05:20 2,1 C 86 % 992,1 hPa 0,0 mm 0,0 km/h (0 Bft) O 90 0 min 0 UV-I 0 W/m 1,6 km/h (1 Bft)
18.02.2010 05:30 2,1 C 86 % 992,1 hPa 0,0 mm 0,0 km/h (0 Bft) N 0 0 min 0 UV-I 0 W/m 0,0 km/h (0 Bft)
18.02.2010 05:40 2,0 C 86 % 992,0 hPa 0,0 mm 0,0 km/h (0 Bft) O 90 0 min 0 UV-I 0 W/m 1,6 km/h (1 Bft)
18.02.2010 05:50 2,0 C 86 % 992,0 hPa 0,0 mm 0,0 km/h (0 Bft) O 90 0 min 0 UV-I 0 W/m 3,2 km/h (1 Bft)
18.02.2010 06:00 2,1 C 86 % 992,2 hPa 0,0 mm 0,0 km/h (0 Bft) O 90 0 min 0 UV-I 0 W/m 1,6 km/h (1 Bft)
18.02.2010 06:10 2,2 C 86 % 992,3 hPa 0,0 mm 0,0 km/h (0 Bft) N 0 0 min 0 UV-I 0 W/m 0,0 km/h (0 Bft)
18.02.2010 06:20 2,2 C 87 % 992,4 hPa 0,0 mm 0,0 km/h (0 Bft) S-SO 157 0 min 0 UV-I 0 W/m 8,0 km/h (2 Bft)
18.02.2010 06:30 2,3 C 87 % 992,4 hPa 0,0 mm 0,0 km/h (0 Bft) SO 135 0 min 0 UV-I 0 W/m 6,4 km/h (2 Bft)
18.02.2010 06:40 2,3 C 87 % 992,4 hPa 0,0 mm 0,0 km/h (0 Bft) SO 135 0 min 0 UV-I 0 W/m 4,8 km/h (1 Bft)
18.02.2010 06:50 2,4 C 87 % 992,4 hPa 0,3 mm 0,0 km/h (0 Bft) SO 135 0 min 0 UV-I 0 W/m 4,8 km/h (1 Bft)
18.02.2010 07:00 2,4 C 87 % 992,6 hPa 0,0 mm 0,0 km/h (0 Bft) S-SO 157 0 min 0 UV-I 0 W/m 3,2 km/h (1 Bft)
18.02.2010 07:10 2,4 C 88 % 992,6 hPa 0,0 mm 0,0 km/h (0 Bft) S-SO 157 0 min 0 UV-I 0 W/m 4,8 km/h (1 Bft)
18.02.2010 07:20 2,4 C 88 % 992,8 hPa 0,0 mm 0,0 km/h (0 Bft) S-SO 157 0 min 0 UV-I 0 W/m 3,2 km/h (1 Bft)
18.02.2010 07:30 2,3 C 88 % 992,8 hPa 0,0 mm 0,0 km/h (0 Bft) S-SO 157 0 min 0 UV-I 0 W/m 3,2 km/h (1 Bft)
18.02.2010 07:40 2,3 C 89 % 992,9 hPa 0,3 mm 0,0 km/h (0 Bft) S-SO 157 0 min 0 UV-I 0 W/m 3,2 km/h (1 Bft)
18.02.2010 07:50 2,2 C 89 % 993,0 hPa 0,0 mm 0,0 km/h (0 Bft) S-SO 157 0 min 0 UV-I 0 W/m 3,2 km/h (1 Bft)
18.02.2010 08:00 2,2 C 89 % 993,1 hPa 0,0 mm 0,0 km/h (0 Bft) S-SO 157 0 min 0 UV-I 0 W/m 1,6 km/h (1 Bft)
18.02.2010 08:10 2,2 C 89 % 993,3 hPa 0,3 mm 0,0 km/h (0 Bft) S-SO 157 0 min 0 UV-I 0 W/m 1,6 km/h (1 Bft)
18.02.2010 08:20 2,3 C 90 % 993,4 hPa 0,0 mm 0,0 km/h (0 Bft) S-SO 157 0 min 0 UV-I 9 W/m 1,6 km/h (1 Bft)
18.02.2010 08:30 2,3 C 90 % 993,5 hPa 0,0 mm 0,0 km/h (0 Bft) S-SO 157 0 min 0 UV-I 14 W/m 1,6 km/h (1 Bft)
18.02.2010 08:40 2,3 C 90 % 993,7 hPa 0,3 mm 0,0 km/h (0 Bft) S-SO 157 0 min 0 UV-I 18 W/m 1,6 km/h (1 Bft)
18.02.2010 08:50 2,3 C 91 % 993,8 hPa 0,3 mm 0,0 km/h (0 Bft) N 0 0 min 0 UV-I 21 W/m 0,0 km/h (0 Bft)
18.02.2010 09:00 2,4 C 91 % 993,8 hPa 0,3 mm 0,0 km/h (0 Bft) S-SO 157 0 min 0 UV-I 25 W/m 1,6 km/h (1 Bft)
18.02.2010 09:10 2,4 C 91 % 993,9 hPa 0,0 mm 0,0 km/h (0 Bft) S-SO 157 0 min 0 UV-I 25 W/m 1,6 km/h (1 Bft)
18.02.2010 09:20 2,4 C 91 % 993,9 hPa 0,0 mm 0,0 km/h (0 Bft) SO 135 0 min 0 UV-I 28 W/m 4,8 km/h (1 Bft)
18.02.2010 09:30 2,4 C 91 % 993,8 hPa 0,0 mm 0,0 km/h (0 Bft) SO 135 0 min 0 UV-I 30 W/m 3,2 km/h (1 Bft)
18.02.2010 09:40 2,5 C 91 % 994,0 hPa 0,0 mm 0,0 km/h (0 Bft) SO 135 0 min 0 UV-I 37 W/m 1,6 km/h (1 Bft)
18.02.2010 09:50 2,6 C 92 % 994,1 hPa 0,3 mm 0,0 km/h (0 Bft) SO 135 0 min 0 UV-I 44 W/m 3,2 km/h (1 Bft)
18.02.2010 10:00 2,7 C 92 % 994,2 hPa 0,0 mm 0,0 km/h (0 Bft) SO 135 0 min 1 UV-I 95 W/m 1,6 km/h (1 Bft)
18.02.2010 10:10 2,9 C 92 % 994,4 hPa 0,0 mm 0,0 km/h (0 Bft) SO 135 0 min 1 UV-I 98 W/m 3,2 km/h (1 Bft)
18.02.2010 10:20 3,1 C 92 % 994,4 hPa 0,0 mm 0,0 km/h (0 Bft) SO 135 0 min 1 UV-I 90 W/m 1,6 km/h (1 Bft)
18.02.2010 10:30 3,2 C 92 % 994,5 hPa 0,0 mm 0,0 km/h (0 Bft) SO 135 0 min 1 UV-I 98 W/m 1,6 km/h (1 Bft)
18.02.2010 10:40 3,3 C 92 % 994,6 hPa 0,0 mm 0,0 km/h (0 Bft) N 0 0 min 1 UV-I 79 W/m 0,0 km/h (0 Bft)
18.02.2010 10:50 3,4 C 92 % 994,8 hPa 0,0 mm 0,0 km/h (0 Bft) SO 135 0 min 1 UV-I 77 W/m 1,6 km/h (1 Bft)
18.02.2010 11:00 3,6 C 92 % 994,8 hPa 0,0 mm 0,0 km/h (0 Bft) SO 135 0 min 1 UV-I 70 W/m 1,6 km/h (1 Bft)
18.02.2010 11:10 3,8 C 92 % 995,0 hPa 0,0 mm 1,6 km/h (1 Bft) W-SW 247 0 min 1 UV-I 74 W/m 6,4 km/h (2 Bft)
18.02.2010 11:20 3,9 C 92 % 995,1 hPa 0,0 mm 1,6 km/h (1 Bft) S-SW 202 0 min 1 UV-I 83 W/m 6,4 km/h (2 Bft)
18.02.2010 11:30 4,1 C 91 % 995,3 hPa 0,0 mm 1,6 km/h (1 Bft) S-SW 202 0 min 1 UV-I 76 W/m 8,0 km/h (2 Bft)
18.02.2010 11:40 4,1 C 91 % 995,3 hPa 0,0 mm 0,0 km/h (0 Bft) SW 225 0 min 1 UV-I 67 W/m 4,8 km/h (1 Bft)
18.02.2010 11:50 4,1 C 91 % 995,5 hPa 0,0 mm 3,2 km/h (1 Bft) SW 225 0 min 1 UV-I 63 W/m 9,7 km/h (2 Bft)
18.02.2010 12:00 4,1 C 90 % 995,6 hPa 0,0 mm 3,2 km/h (1 Bft) S-SW 202 0 min 1 UV-I 95 W/m 14,5 km/h (3 Bft)
18.02.2010 12:10 4,2 C 90 % 995,7 hPa 0,0 mm 3,2 km/h (1 Bft) SW 225 0 min 1 UV-I 105 W/m 16,1 km/h (3 Bft)
18.02.2010 12:20 4,3 C 89 % 995,8 hPa 0,0 mm 3,2 km/h (1 Bft) SW 225 0 min 1 UV-I 134 W/m 11,3 km/h (2 Bft)
18.02.2010 12:30 4,3 C 89 % 995,7 hPa 0,0 mm 3,2 km/h (1 Bft) SW 225 0 min 1 UV-I 107 W/m 9,7 km/h (2 Bft)
18.02.2010 12:40 4,4 C 89 % 995,8 hPa 0,0 mm 1,6 km/h (1 Bft) SW 225 0 min 1 UV-I 104 W/m 6,4 km/h (2 Bft)
18.02.2010 12:50 4,4 C 89 % 995,8 hPa 0,0 mm 1,6 km/h (1 Bft) SW 225 0 min 1 UV-I 93 W/m 6,4 km/h (2 Bft)
18.02.2010 13:00 4,4 C 89 % 995,8 hPa 0,0 mm 1,6 km/h (1 Bft) S-SW 202 0 min 1 UV-I 97 W/m 8,0 km/h (2 Bft)
18.02.2010 13:10 4,4 C 89 % 995,8 hPa 0,0 mm 1,6 km/h (1 Bft) W-SW 247 0 min 1 UV-I 90 W/m 4,8 km/h (1 Bft)
18.02.2010 13:20 4,4 C 89 % 996,0 hPa 0,0 mm 3,2 km/h (1 Bft) W-SW 247 0 min 1 UV-I 95 W/m 8,0 km/h (2 Bft)
18.02.2010 13:30 4,4 C 89 % 996,0 hPa 0,0 mm 0,0 km/h (0 Bft) W-SW 247 0 min 1 UV-I 102 W/m 6,4 km/h (2 Bft)
18.02.2010 13:40 4,5 C 89 % 996,0 hPa 0,0 mm 1,6 km/h (1 Bft) W 270 0 min 1 UV-I 97 W/m 6,4 km/h (2 Bft)
18.02.2010 13:50 4,6 C 89 % 996,1 hPa 0,0 mm 0,0 km/h (0 Bft) W 270 0 min 1 UV-I 86 W/m 4,8 km/h (1 Bft)
18.02.2010 14:00 4,5 C 89 % 996,1 hPa 0,0 mm 1,6 km/h (1 Bft) W 270 0 min 1 UV-I 102 W/m 8,0 km/h (2 Bft)
18.02.2010 14:10 4,4 C 89 % 996,1 hPa 0,0 mm 3,2 km/h (1 Bft) W 270 0 min 1 UV-I 98 W/m 11,3 km/h (2 Bft)
18.02.2010 14:20 4,3 C 89 % 996,1 hPa 0,0 mm 1,6 km/h (1 Bft) W 270 0 min 1 UV-I 127 W/m 9,7 km/h (2 Bft)
18.02.2010 14:30 4,4 C 89 % 996,0 hPa 0,0 mm 1,6 km/h (1 Bft) W 270 0 min 1 UV-I 116 W/m 6,4 km/h (2 Bft)
18.02.2010 14:40 4,6 C 89 % 996,0 hPa 0,0 mm 1,6 km/h (1 Bft) W 270 0 min 1 UV-I 155 W/m 4,8 km/h (1 Bft)
18.02.2010 14:50 4,7 C 88 % 995,9 hPa 0,0 mm 1,6 km/h (1 Bft) W 270 0 min 1 UV-I 158 W/m 8,0 km/h (2 Bft)
18.02.2010 15:00 4,9 C 87 % 995,9 hPa 0,0 mm 1,6 km/h (1 Bft) W-NW 292 10 min 1 UV-I 257 W/m 6,4 km/h (2 Bft)
18.02.2010 15:10 5,1 C 86 % 996,0 hPa 0,0 mm 1,6 km/h (1 Bft) W-NW 292 10 min 1 UV-I 241 W/m 4,8 km/h (1 Bft)
18.02.2010 15:20 5,1 C 85 % 996,0 hPa 0,0 mm 1,6 km/h (1 Bft) W 270 10 min 1 UV-I 179 W/m 6,4 km/h (2 Bft)
18.02.2010 15:30 5,1 C 84 % 996,0 hPa 0,0 mm 1,6 km/h (1 Bft) W 270 10 min 1 UV-I 346 W/m 8,0 km/h (2 Bft)
18.02.2010 15:40 5,2 C 83 % 995,9 hPa 0,0 mm 1,6 km/h (1 Bft) W-NW 292 10 min 1 UV-I 304 W/m 4,8 km/h (1 Bft)
18.02.2010 15:50 5,3 C 83 % 995,9 hPa 0,0 mm 0,0 km/h (0 Bft) W-NW 292 10 min 1 UV-I 244 W/m 1,6 km/h (1 Bft)
18.02.2010 16:00 5,3 C 83 % 995,9 hPa 0,0 mm 0,1 km/h (0 Bft) W-NW 300 10 min 1 UV-I 204 W/m 1,6 km/h (1 Bft)
18.02.2010 16:10 5,3 C 83 % 995,9 hPa 0,0 mm 0,0 km/h (0 Bft) W-NW 292 10 min 1 UV-I 197 W/m 3,2 km/h (1 Bft)
18.02.2010 16:20 5,2 C 83 % 995,9 hPa 0,0 mm 0,0 km/h (0 Bft) W-NW 292 10 min 1 UV-I 185 W/m 1,6 km/h (1 Bft)
18.02.2010 16:30 5,2 C 82 % 996,0 hPa 0,0 mm 0,0 km/h (0 Bft) W-NW 292 10 min 0 UV-I 162 W/m 1,6 km/h (1 Bft)
18.02.2010 16:40 5,0 C 84 % 996,0 hPa 0,0 mm 0,0 km/h (0 Bft) W-NW 292 10 min 0 UV-I 137 W/m 1,6 km/h (1 Bft)
18.02.2010 16:50 4,7 C 84 % 995,9 hPa 0,0 mm 0,0 km/h (0 Bft) N 0 10 min 0 UV-I 98 W/m 0,0 km/h (0 Bft)
18.02.2010 17:00 4,4 C 85 % 995,9 hPa 0,0 mm 0,0 km/h (0 Bft) W-NW 292 10 min 0 UV-I 63 W/m 1,6 km/h (1 Bft)
18.02.2010 17:10 4,2 C 85 % 995,9 hPa 0,0 mm 0,0 km/h (0 Bft) N 0 0 min 0 UV-I 33 W/m 0,0 km/h (0 Bft)
18.02.2010 17:20 3,9 C 86 % 996,0 hPa 0,0 mm 0,0 km/h (0 Bft) N 0 0 min 0 UV-I 26 W/m 0,0 km/h (0 Bft)
18.02.2010 17:30 3,5 C 87 % 996,1 hPa 0,0 mm 0,0 km/h (0 Bft) N 0 10 min 0 UV-I 19 W/m 0,0 km/h (0 Bft)
18.02.2010 17:40 3,2 C 88 % 996,1 hPa 0,0 mm 0,0 km/h (0 Bft) N 0 0 min 0 UV-I 11 W/m 0,0 km/h (0 Bft)
18.02.2010 17:50 2,9 C 88 % 996,1 hPa 0,0 mm 0,0 km/h (0 Bft) N 0 0 min 0 UV-I 5 W/m 0,0 km/h (0 Bft)
18.02.2010 18:00 2,5 C 88 % 996,2 hPa 0,0 mm 0,0 km/h (0 Bft) N 0 0 min 0 UV-I 0 W/m 0,0 km/h (0 Bft)
18.02.2010 18:10 2,0 C 88 % 996,2 hPa 0,0 mm 0,0 km/h (0 Bft) N 0 0 min 0 UV-I 0 W/m 0,0 km/h (0 Bft)
18.02.2010 18:20 1,5 C 89 % 996,3 hPa 0,0 mm 0,0 km/h (0 Bft) W-NW 292 0 min 0 UV-I 0 W/m 3,2 km/h (1 Bft)
18.02.2010 18:30 1,5 C 90 % 996,4 hPa 0,0 mm 0,0 km/h (0 Bft) W-NW 292 0 min 0 UV-I 0 W/m 1,6 km/h (1 Bft)
18.02.2010 18:40 1,7 C 90 % 996,5 hPa 0,0 mm 0,0 km/h (0 Bft) W-NW 292 0 min 0 UV-I 0 W/m 3,2 km/h (1 Bft)
18.02.2010 18:50 1,6 C 90 % 996,5 hPa 0,0 mm 0,0 km/h (0 Bft) N 0 0 min 0 UV-I 0 W/m 0,0 km/h (0 Bft)
18.02.2010 19:00 1,3 C 90 % 996,6 hPa 0,0 mm 0,0 km/h (0 Bft) N 0 0 min 0 UV-I 0 W/m 0,0 km/h (0 Bft)
18.02.2010 19:10 1,1 C 90 % 996,6 hPa 0,0 mm 0,0 km/h (0 Bft) N 0 0 min 0 UV-I 0 W/m 0,0 km/h (0 Bft)
18.02.2010 19:20 0,9 C 90 % 996,7 hPa 0,0 mm 0,0 km/h (0 Bft) W-NW 292 0 min 0 UV-I 0 W/m 3,2 km/h (1 Bft)
18.02.2010 19:30 0,9 C 91 % 996,8 hPa 0,0 mm 0,0 km/h (0 Bft) W-NW 292 0 min 0 UV-I 0 W/m 1,6 km/h (1 Bft)
18.02.2010 19:40 0,9 C 90 % 996,8 hPa 0,0 mm 0,0 km/h (0 Bft) N 0 0 min 0 UV-I 0 W/m 0,0 km/h (0 Bft)
18.02.2010 19:50 0,8 C 90 % 996,6 hPa 0,0 mm 0,0 km/h (0 Bft) W-NW 292 0 min 0 UV-I 0 W/m 1,6 km/h (1 Bft)
18.02.2010 20:00 0,8 C 90 % 996,7 hPa 0,0 mm 0,0 km/h (0 Bft) W-NW 292 0 min 0 UV-I 0 W/m 1,6 km/h (1 Bft)
18.02.2010 20:10 0,7 C 90 % 996,8 hPa 0,0 mm 0,0 km/h (0 Bft) NW 315 0 min 0 UV-I 0 W/m 4,8 km/h (1 Bft)
18.02.2010 20:20 0,7 C 90 % 996,8 hPa 0,0 mm 0,0 km/h (0 Bft) NW 315 0 min 0 UV-I 0 W/m 3,2 km/h (1 Bft)
18.02.2010 20:30 0,6 C 90 % 997,0 hPa 0,0 mm 0,0 km/h (0 Bft) S-SO 157 0 min 0 UV-I 0 W/m 3,2 km/h (1 Bft)
18.02.2010 20:40 0,6 C 90 % 996,9 hPa 0,0 mm 0,0 km/h (0 Bft) S-SO 157 0 min 0 UV-I 0 W/m 3,2 km/h (1 Bft)
18.02.2010 20:50 0,6 C 91 % 996,8 hPa 0,0 mm 0,5 km/h (0 Bft) O-SO 109 0 min 0 UV-I 0 W/m 3,2 km/h (1 Bft)
18.02.2010 21:00 0,7 C 91 % 996,7 hPa 0,0 mm 0,7 km/h (0 Bft) S-SO 152 0 min 0 UV-I 0 W/m 4,8 km/h (1 Bft)
18.02.2010 21:10 0,9 C 91 % 996,7 hPa 0,0 mm 1,1 km/h (1 Bft) S-SO 157 0 min 0 UV-I 0 W/m 8,0 km/h (2 Bft)
18.02.2010 21:20 1,2 C 91 % 996,6 hPa 0,0 mm 0,6 km/h (0 Bft) S-SO 159 0 min 0 UV-I 0 W/m 4,8 km/h (1 Bft)
18.02.2010 21:30 1,3 C 91 % 996,6 hPa 0,0 mm 0,1 km/h (0 Bft) S-SO 153 0 min 0 UV-I 0 W/m 3,2 km/h (1 Bft)
18.02.2010 21:40 1,3 C 91 % 996,6 hPa 0,0 mm 0,1 km/h (0 Bft) O-SO 105 0 min 0 UV-I 0 W/m 3,2 km/h (1 Bft)
18.02.2010 21:50 1,3 C 90 % 996,6 hPa 0,0 mm 1,8 km/h (1 Bft) SO 124 0 min 0 UV-I 0 W/m 8,0 km/h (2 Bft)
18.02.2010 22:00 1,3 C 90 % 996,6 hPa 0,0 mm 0,0 km/h (0 Bft) O 90 0 min 0 UV-I 0 W/m 6,4 km/h (2 Bft)
18.02.2010 22:10 1,3 C 90 % 996,5 hPa 0,0 mm 1,6 km/h (1 Bft) O-SO 112 0 min 0 UV-I 0 W/m 6,4 km/h (2 Bft)
18.02.2010 22:20 1,3 C 90 % 996,5 hPa 0,0 mm 1,6 km/h (1 Bft) O-SO 112 0 min 0 UV-I 0 W/m 6,4 km/h (2 Bft)
18.02.2010 22:30 1,3 C 90 % 996,4 hPa 0,0 mm 3,2 km/h (1 Bft) O-SO 112 0 min 0 UV-I 0 W/m 9,7 km/h (2 Bft)
18.02.2010 22:40 1,4 C 90 % 996,3 hPa 0,0 mm 3,2 km/h (1 Bft) O-SO 112 0 min 0 UV-I 0 W/m 16,1 km/h (3 Bft)
18.02.2010 22:50 1,7 C 90 % 996,2 hPa 0,0 mm 1,6 km/h (1 Bft) S 180 0 min 0 UV-I 0 W/m 8,0 km/h (2 Bft)
18.02.2010 23:00 1,8 C 90 % 996,2 hPa 0,0 mm 1,6 km/h (1 Bft) S-SO 157 0 min 0 UV-I 0 W/m 11,3 km/h (2 Bft)
18.02.2010 23:10 1,8 C 89 % 996,2 hPa 0,0 mm 3,2 km/h (1 Bft) S-SO 157 0 min 0 UV-I 0 W/m 9,7 km/h (2 Bft)
18.02.2010 23:20 1,9 C 89 % 996,0 hPa 0,0 mm 1,6 km/h (1 Bft) SO 135 0 min 0 UV-I 0 W/m 8,0 km/h (2 Bft)
18.02.2010 23:30 1,9 C 89 % 996,0 hPa 0,0 mm 1,6 km/h (1 Bft) SO 135 0 min 0 UV-I 0 W/m 14,5 km/h (3 Bft)
18.02.2010 23:40 2,1 C 89 % 995,9 hPa 0,0 mm 1,6 km/h (1 Bft) SO 135 0 min 0 UV-I 0 W/m 14,5 km/h (3 Bft)
18.02.2010 23:50 2,2 C 88 % 995,8 hPa 0,0 mm 3,2 km/h (1 Bft) S 180 0 min 0 UV-I 0 W/m 9,7 km/h (2 Bft)
_ Min-Zeit 20:30 00:20 04:30 - 02:10 - - - - - 05:30
Minimum _ 0,6 C 79 % 991,8 hPa - 0,0 km/h (0 Bft) - - - - - 0,0 km/h (0 Bft)
_ Max-Zeit 15:50 09:50 20:30 06:50 00:00 - - 15:00 15:00 15:30 01:00
Maximum _ 5,4 C 92 % 997,0 hPa 0,3 mm 3,2 km/h
O-SO (1 Bft)
- - 10 min 1 UV-I 346 W/m 16,1 km/h
S (3 Bft)
Durchschnitt _ 2,7 C 87 % 994,6 hPa #1,8 mm 0,8 km/h (0 Bft) O-SO - #2:20 h 1 UV-I 102 W/m 4,9 km/h (1 Bft)